Time;durP1;ratioP1;P1;durP2;ratioP2;P2;SDS_P1;SDS_P2;PMS_P1;PMS_P2;Temp;Humidity;BMP_temperature;BMP_pressure;BME280_temperature;BME280_humidity;BME280_pressure;Samples;Min_cycle;Max_cycle;Signal;HPM_P1;HPM_P2
2020/12/05 00:13:28;;;;;;;11.10;6.10;;;8.00;70.10;;;;;;2439343;55;21128;-84
2020/12/05 00:17:40;;;;;;;3.92;2.05;;;7.60;69.30;;;;;;2459290;54;20986;-87
2020/12/05 00:20:15;;;;;;;3.40;1.80;;;7.50;69.60;;;;;;2463554;53;21083;-88
2020/12/05 00:22:44;;;;;;;4.85;1.92;;;7.40;69.60;;;;;;2463184;55;21740;-89
2020/12/05 00:25:11;;;;;;;3.53;1.98;;;7.40;69.70;;;;;;2461969;54;21123;-89
2020/12/05 00:27:37;;;;;;;2.55;1.27;;;7.30;69.80;;;;;;2456231;54;21067;-86
2020/12/05 00:30:08;;;;;;;4.03;1.50;;;7.30;69.80;;;;;;2415577;54;21806;-86
2020/12/05 00:32:37;;;;;;;3.62;1.58;;;7.30;69.90;;;;;;2409789;55;21008;-85
2020/12/05 00:35:04;;;;;;;2.40;1.08;;;7.30;70.00;;;;;;2437821;54;21555;-85
2020/12/05 00:37:30;;;;;;;2.50;1.00;;;7.20;70.10;;;;;;2429241;54;22570;-88
2020/12/05 00:39:57;;;;;;;3.85;1.30;;;7.20;70.00;;;;;;2429431;55;21016;-87
2020/12/05 00:42:24;;;;;;;2.58;0.90;;;7.20;70.10;;;;;;2451294;54;21019;-86
2020/12/05 00:44:53;;;;;;;2.85;1.15;;;7.20;70.10;;;;;;2434786;54;21150;-88
2020/12/05 00:47:20;;;;;;;5.50;2.30;;;7.20;70.10;;;;;;2410110;55;21015;-88
2020/12/05 00:49:47;;;;;;;5.12;2.30;;;7.10;70.00;;;;;;2418464;55;24933;-84
2020/12/05 00:52:13;;;;;;;3.47;1.80;;;7.10;69.90;;;;;;2448797;54;21051;-85
2020/12/05 00:54:40;;;;;;;3.80;1.70;;;7.10;69.90;;;;;;2462904;54;20964;-85
2020/12/05 00:57:06;;;;;;;5.20;2.10;;;7.10;70.00;;;;;;2422750;55;21043;-85
2020/12/05 00:59:33;;;;;;;5.07;2.45;;;7.10;70.00;;;;;;2456157;54;20976;-88
2020/12/05 01:02:00;;;;;;;5.72;2.80;;;7.00;70.00;;;;;;2453788;54;20976;-85
2020/12/05 01:04:28;;;;;;;5.40;2.62;;;7.00;69.90;;;;;;2409502;55;21003;-88
2020/12/05 01:06:55;;;;;;;3.67;2.20;;;7.00;69.90;;;;;;2188678;57;21028;-85
2020/12/05 01:09:21;;;;;;;3.97;1.95;;;7.00;69.90;;;;;;2223091;55;21458;-84
2020/12/05 01:11:48;;;;;;;3.15;1.60;;;7.00;70.00;;;;;;2432356;55;20943;-84
2020/12/05 01:14:15;;;;;;;3.15;1.67;;;7.00;70.00;;;;;;2439127;55;21815;-85
2020/12/05 01:16:41;;;;;;;4.55;1.87;;;6.90;69.90;;;;;;2433378;55;20980;-84
2020/12/05 01:19:07;;;;;;;4.05;1.98;;;6.90;70.00;;;;;;2434395;54;21962;-90
2020/12/05 01:21:33;;;;;;;4.80;2.40;;;6.90;70.10;;;;;;2436344;55;21481;-85
2020/12/05 01:24:00;;;;;;;4.45;2.10;;;6.90;70.20;;;;;;2213759;56;21026;-86
2020/12/05 01:26:27;;;;;;;4.20;2.10;;;6.90;70.10;;;;;;2440179;55;20970;-86
2020/12/05 01:28:53;;;;;;;3.15;1.50;;;6.90;70.10;;;;;;2430749;55;20979;-85
2020/12/05 01:31:20;;;;;;;3.80;1.67;;;6.80;69.90;;;;;;2431592;55;20991;-89
2020/12/05 01:33:46;;;;;;;4.82;2.42;;;6.80;70.10;;;;;;2436713;55;20924;-84
2020/12/05 01:36:12;;;;;;;5.87;2.72;;;6.80;70.30;;;;;;2459020;54;21064;-89
2020/12/05 01:38:39;;;;;;;4.95;2.53;;;6.80;70.30;;;;;;2432203;55;20940;-85
2020/12/05 01:41:06;;;;;;;5.10;2.60;;;6.80;70.30;;;;;;2431640;55;21018;-86
2020/12/05 01:43:32;;;;;;;3.90;1.90;;;6.80;70.30;;;;;;2439086;55;21118;-86
2020/12/05 01:46:00;;;;;;;2.95;1.58;;;6.80;70.30;;;;;;2214060;56;20971;-88
2020/12/05 01:48:26;;;;;;;3.80;1.65;;;6.80;70.50;;;;;;2435832;55;21066;-86
2020/12/05 01:50:53;;;;;;;3.42;1.67;;;6.80;70.40;;;;;;2434753;55;20948;-87
2020/12/05 01:53:20;;;;;;;2.60;1.20;;;6.80;70.50;;;;;;2431520;55;22253;-86
2020/12/05 01:55:49;;;;;;;2.10;1.05;;;6.70;70.40;;;;;;2439692;55;20991;-85
2020/12/05 01:58:16;;;;;;;2.37;1.15;;;6.70;70.40;;;;;;2214168;55;20988;-87
2020/12/05 02:00:43;;;;;;;2.87;1.00;;;6.70;70.40;;;;;;2213321;56;21531;-85
2020/12/05 02:03:09;;;;;;;2.75;1.20;;;6.70;70.30;;;;;;2438145;55;20930;-87
2020/12/05 02:06:02;;;;;;;3.12;1.30;;;6.70;70.20;;;;;;2434397;55;20963;-86
2020/12/05 02:08:38;;;;;;;4.33;2.00;;;6.70;70.20;;;;;;2432039;55;21030;-84
2020/12/05 02:11:06;;;;;;;5.82;3.10;;;6.70;70.30;;;;;;2446157;55;21049;-88
2020/12/05 02:13:43;;;;;;;2.65;1.42;;;6.70;70.50;;;;;;2450462;54;20959;-87
2020/12/05 02:16:09;;;;;;;2.50;1.50;;;6.60;70.30;;;;;;2432434;55;20986;-86
2020/12/05 02:18:35;;;;;;;2.20;1.00;;;6.60;70.30;;;;;;2432336;55;21007;-85
2020/12/05 02:21:04;;;;;;;2.72;1.00;;;6.60;70.30;;;;;;2432616;55;20983;-87
2020/12/05 02:23:30;;;;;;;2.05;0.90;;;6.60;70.20;;;;;;2435845;55;21438;-89
2020/12/05 02:26:04;;;;;;;2.35;0.90;;;6.50;70.00;;;;;;2217328;55;21726;-87
2020/12/05 02:28:31;;;;;;;2.12;1.00;;;6.60;70.10;;;;;;2431711;55;20995;-88
2020/12/05 02:30:57;;;;;;;1.85;0.88;;;6.50;70.10;;;;;;2436794;55;20922;-84
2020/12/05 02:33:23;;;;;;;2.10;0.93;;;6.50;70.10;;;;;;2434205;55;21042;-88
2020/12/05 02:35:50;;;;;;;1.55;0.70;;;6.50;70.30;;;;;;2214200;56;20994;-88
2020/12/05 02:39:50;;;;;;;3.10;0.90;;;6.50;70.30;;;;;;2213284;56;20975;-86
2020/12/05 02:42:16;;;;;;;2.75;1.50;;;6.50;70.00;;;;;;2213134;56;20959;-86
2020/12/05 02:44:49;;;;;;;2.70;1.27;;;6.50;70.20;;;;;;2213465;56;21005;-87
2020/12/05 02:47:16;;;;;;;2.53;1.02;;;6.40;70.10;;;;;;2433819;55;21007;-86
2020/12/05 02:49:42;;;;;;;2.62;1.15;;;6.40;70.20;;;;;;2438002;55;20956;-86
2020/12/05 02:52:09;;;;;;;2.97;1.30;;;6.40;70.30;;;;;;2393031;56;20965;-85
2020/12/05 02:54:35;;;;;;;2.53;1.17;;;6.40;70.40;;;;;;2437531;55;20954;-88
2020/12/05 02:57:02;;;;;;;2.60;1.17;;;6.30;70.50;;;;;;2218603;56;21066;-89
2020/12/05 02:59:28;;;;;;;2.28;1.00;;;6.30;70.50;;;;;;2251554;54;20984;-84
2020/12/05 03:01:55;;;;;;;5.18;1.50;;;6.30;70.50;;;;;;2426612;55;20971;-86
2020/12/05 03:04:22;;;;;;;2.10;0.98;;;6.30;70.60;;;;;;2432163;55;21435;-85
2020/12/05 03:06:48;;;;;;;1.48;0.70;;;6.30;70.70;;;;;;2432631;55;20991;-88
2020/12/05 03:09:14;;;;;;;1.67;0.80;;;6.30;70.80;;;;;;2437612;55;20906;-90
2020/12/05 03:11:41;;;;;;;2.12;0.93;;;6.30;71.50;;;;;;2243720;54;21361;-85
2020/12/05 03:14:07;;;;;;;2.62;1.00;;;6.30;70.90;;;;;;2451971;54;20995;-89
2020/12/05 03:16:33;;;;;;;2.58;1.10;;;6.30;70.90;;;;;;2432350;55;20951;-87
2020/12/05 03:19:00;;;;;;;2.03;0.85;;;6.30;71.00;;;;;;2432174;55;20955;-88
2020/12/05 03:21:26;;;;;;;3.37;1.30;;;6.30;71.10;;;;;;2434609;55;21034;-86
2020/12/05 03:23:53;;;;;;;3.10;1.02;;;6.30;71.70;;;;;;2436608;55;21859;-85
2020/12/05 03:26:19;;;;;;;2.30;0.88;;;6.30;71.10;;;;;;2431555;55;20951;-85
2020/12/05 03:28:45;;;;;;;2.00;0.90;;;6.30;71.10;;;;;;2431785;55;20928;-86
2020/12/05 03:31:31;;;;;;;1.25;0.50;;;6.30;71.10;;;;;;2432053;55;21609;-88
2020/12/05 03:33:59;;;;;;;1.25;0.50;;;6.30;71.20;;;;;;2432058;55;21007;-84
2020/12/05 03:36:25;;;;;;;0.45;0.30;;;6.30;71.30;;;;;;2431923;55;21011;-86
2020/12/05 03:38:53;;;;;;;0.75;0.40;;;6.40;71.30;;;;;;2220615;55;21506;-89
2020/12/05 03:41:20;;;;;;;1.33;0.45;;;6.40;71.40;;;;;;2439049;55;21532;-85
2020/12/05 03:43:46;;;;;;;0.55;0.30;;;6.40;71.40;;;;;;2433742;55;21099;-88
2020/12/05 03:46:13;;;;;;;1.33;0.50;;;6.40;71.20;;;;;;2426367;55;20952;-88
2020/12/05 03:48:39;;;;;;;0.60;0.40;;;6.40;71.20;;;;;;2431931;55;21761;-85
2020/12/05 03:51:06;;;;;;;0.50;0.32;;;6.40;71.20;;;;;;2238124;54;20962;-86
2020/12/05 03:53:32;;;;;;;0.75;0.20;;;6.40;71.10;;;;;;2450510;54;21810;-87
2020/12/05 03:55:59;;;;;;;1.27;0.50;;;6.50;71.20;;;;;;2432757;55;21015;-88
2020/12/05 03:58:25;;;;;;;2.37;0.65;;;6.50;71.20;;;;;;2431524;55;20931;-84
2020/12/05 04:00:51;;;;;;;2.03;0.68;;;6.50;71.20;;;;;;2432375;55;21314;-87
2020/12/05 04:03:17;;;;;;;0.85;0.40;;;6.50;71.10;;;;;;2230862;55;20940;-88
2020/12/05 04:05:44;;;;;;;0.37;0.30;;;6.50;71.10;;;;;;2447085;54;21125;-86
2020/12/05 04:08:10;;;;;;;1.02;0.43;;;6.50;71.00;;;;;;2258783;54;21040;-86
2020/12/05 04:10:37;;;;;;;1.20;0.50;;;6.50;70.90;;;;;;2442086;54;20963;-86
2020/12/05 04:13:03;;;;;;;1.20;0.40;;;6.50;71.00;;;;;;2438740;55;20990;-86
2020/12/05 04:15:30;;;;;;;0.90;0.40;;;6.50;70.90;;;;;;2433501;55;20976;-85
2020/12/05 04:17:57;;;;;;;0.37;0.20;;;6.50;70.90;;;;;;2431571;55;20943;-85
2020/12/05 04:20:23;;;;;;;0.80;0.40;;;6.50;70.90;;;;;;2432797;55;20979;-89
2020/12/05 04:22:50;;;;;;;0.20;0.20;;;6.50;71.00;;;;;;2213888;56;21003;-89
2020/12/05 04:25:16;;;;;;;0.20;0.20;;;6.50;71.00;;;;;;2438948;55;20946;-88
2020/12/05 04:27:43;;;;;;;0.55;0.28;;;6.50;71.00;;;;;;2458004;54;21045;-86
2020/12/05 04:30:09;;;;;;;0.98;0.40;;;6.50;70.80;;;;;;2438063;55;20954;-84
2020/12/05 04:32:36;;;;;;;0.47;0.30;;;6.50;70.80;;;;;;2441359;55;20914;-85
2020/12/05 04:35:02;;;;;;;1.00;0.40;;;6.50;70.70;;;;;;2468306;54;20934;-88
2020/12/05 04:37:28;;;;;;;0.73;0.40;;;6.50;70.80;;;;;;2436844;55;20971;-86
2020/12/05 04:39:54;;;;;;;1.40;0.45;;;6.50;70.80;;;;;;2431257;55;21369;-86
2020/12/05 04:42:21;;;;;;;1.15;0.40;;;6.50;70.90;;;;;;2439391;55;20950;-86
2020/12/05 04:44:47;;;;;;;0.90;0.40;;;6.40;70.80;;;;;;2432810;55;20958;-86
2020/12/05 04:47:15;;;;;;;0.88;0.40;;;6.50;71.00;;;;;;2432270;55;21847;-87
2020/12/05 04:49:41;;;;;;;1.40;0.50;;;6.50;71.30;;;;;;2212947;56;20939;-86
2020/12/05 04:53:29;;;;;;;0.28;0.28;;;6.50;71.30;;;;;;2431518;55;21847;-87
2020/12/05 04:56:00;;;;;;;0.70;0.47;;;6.50;70.90;;;;;;2237591;54;20987;-89
2020/12/05 04:58:27;;;;;;;0.65;0.37;;;6.50;71.40;;;;;;2391716;56;20947;-85
2020/12/05 05:00:59;;;;;;;0.65;0.30;;;6.50;71.40;;;;;;2431486;55;20983;-87
2020/12/05 05:03:26;;;;;;;;;;;6.50;71.50;;;;;;2435534;55;20988;-86
2020/12/05 05:05:53;;;;;;;0.37;0.30;;;6.60;71.10;;;;;;2213585;56;20127;-86
2020/12/05 05:08:20;;;;;;;0.50;0.30;;;6.60;71.60;;;;;;2221490;55;20938;-86
2020/12/05 05:10:46;;;;;;;1.05;0.40;;;6.60;71.70;;;;;;2213799;55;21451;-86
2020/12/05 05:13:18;;;;;;;1.17;0.47;;;6.60;71.80;;;;;;2431598;55;21096;-86
2020/12/05 05:15:45;;;;;;;1.12;0.55;;;6.60;71.80;;;;;;2439261;55;21932;-86
2020/12/05 05:18:12;;;;;;;0.73;0.40;;;6.60;71.80;;;;;;2435201;55;21005;-87
2020/12/05 05:20:54;;;;;;;0.80;0.45;;;6.70;72.00;;;;;;2216650;55;21333;-86
2020/12/05 05:23:21;;;;;;;1.45;0.60;;;6.70;72.00;;;;;;2431426;55;21014;-84
2020/12/05 05:25:55;;;;;;;0.93;0.52;;;6.70;71.90;;;;;;2437975;55;21536;-87
2020/12/05 05:28:36;;;;;;;1.00;0.40;;;6.80;72.00;;;;;;2456125;55;20971;-84
2020/12/05 05:31:26;;;;;;;1.90;0.60;;;6.80;72.10;;;;;;2405602;56;20973;-88
2020/12/05 05:33:53;;;;;;;1.77;0.50;;;6.80;72.10;;;;;;2432246;55;20971;-87
2020/12/05 05:36:37;;;;;;;1.35;0.50;;;6.80;72.10;;;;;;2435341;55;21021;-88
2020/12/05 05:39:11;;;;;;;1.33;0.55;;;6.90;72.10;;;;;;2401573;56;20987;-86
2020/12/05 05:41:41;;;;;;;1.02;0.50;;;6.90;72.20;;;;;;2215425;56;21015;-86
2020/12/05 05:44:17;;;;;;;1.02;0.50;;;6.90;72.20;;;;;;2439593;55;21489;-88
2020/12/05 05:46:46;;;;;;;1.80;0.65;;;7.00;72.30;;;;;;2432514;55;21011;-85
2020/12/05 05:49:14;;;;;;;1.10;0.60;;;7.00;72.20;;;;;;2432216;55;20935;-87
2020/12/05 05:51:45;;;;;;;0.93;0.50;;;7.00;72.10;;;;;;2434813;55;21033;-88
2020/12/05 05:54:37;;;;;;;1.40;0.60;;;7.00;72.00;;;;;;2435755;55;20998;-86
2020/12/05 05:57:11;;;;;;;2.90;1.10;;;7.10;72.00;;;;;;2457462;54;21167;-85
2020/12/05 05:59:38;;;;;;;2.25;1.00;;;7.10;71.80;;;;;;2433828;54;20926;-84
2020/12/05 06:02:11;;;;;;;1.98;0.90;;;7.10;71.80;;;;;;2222853;54;20919;-86
2020/12/05 06:04:39;;;;;;;1.73;0.70;;;7.10;71.80;;;;;;2431373;55;21012;-84
2020/12/05 06:07:09;;;;;;;2.03;0.85;;;7.10;71.80;;;;;;2432924;55;21890;-87
2020/12/05 06:09:54;;;;;;;2.78;0.77;;;7.10;71.90;;;;;;2390580;56;21035;-84
2020/12/05 06:12:26;;;;;;;1.90;0.70;;;7.10;71.90;;;;;;2432005;55;20935;-85
2020/12/05 06:14:53;;;;;;;1.70;0.80;;;7.10;72.10;;;;;;2440715;55;20962;-86
2020/12/05 06:17:20;;;;;;;1.87;0.85;;;7.10;72.00;;;;;;2434526;55;21892;-84
2020/12/05 06:19:48;;;;;;;2.15;0.95;;;7.10;72.10;;;;;;2451718;55;20948;-87
2020/12/05 06:22:27;;;;;;;2.90;1.25;;;7.20;72.30;;;;;;2448105;54;20913;-85
2020/12/05 06:25:06;;;;;;;2.22;1.00;;;7.20;72.10;;;;;;2465330;54;20998;-88
2020/12/05 06:27:43;;;;;;;2.05;0.82;;;7.30;72.20;;;;;;2475694;54;22348;-85
2020/12/05 06:30:17;;;;;;;2.40;0.88;;;7.30;72.10;;;;;;2431028;55;21463;-86
2020/12/05 06:32:47;;;;;;;2.33;1.00;;;7.30;72.10;;;;;;2224004;55;21520;-84
2020/12/05 06:35:50;;;;;;;2.37;1.02;;;7.30;72.10;;;;;;2390842;56;21034;-87
2020/12/05 06:38:22;;;;;;;2.00;0.85;;;7.30;71.70;;;;;;2460601;54;21054;-83
2020/12/05 06:40:51;;;;;;;1.67;0.70;;;7.40;72.00;;;;;;2445699;54;20970;-87
2020/12/05 06:43:20;;;;;;;1.50;0.70;;;7.40;72.10;;;;;;2223241;55;21006;-85
2020/12/05 06:45:50;;;;;;;2.37;1.00;;;7.40;71.90;;;;;;2437462;55;21000;-85
2020/12/05 06:48:46;;;;;;;2.65;1.20;;;7.40;71.90;;;;;;2431965;55;20982;-85
2020/12/05 06:55:38;;;;;;;3.00;1.40;;;7.40;71.30;;;;;;2446459;55;20999;-88
2020/12/05 06:58:43;;;;;;;2.40;1.08;;;7.40;70.70;;;;;;2456507;54;21063;-87
2020/12/05 07:01:35;;;;;;;3.00;1.40;;;7.40;70.80;;;;;;2461074;54;22139;-87
2020/12/05 07:04:20;;;;;;;2.58;1.10;;;7.30;70.50;;;;;;2443544;54;20959;-87
2020/12/05 07:06:52;;;;;;;2.58;1.12;;;7.30;70.20;;;;;;2393029;56;21570;-85
2020/12/05 07:09:21;;;;;;;3.47;1.20;;;7.20;70.20;;;;;;2432794;55;20948;-86
2020/12/05 07:11:47;;;;;;;2.33;1.05;;;7.20;70.00;;;;;;2214605;56;20943;-87
2020/12/05 07:14:25;;;;;;;3.67;1.50;;;7.20;70.00;;;;;;2432504;55;21008;-85
2020/12/05 07:16:52;;;;;;;2.40;1.15;;;7.10;69.90;;;;;;2432301;55;21740;-87
2020/12/05 07:19:21;;;;;;;3.00;1.33;;;7.10;70.10;;;;;;2212879;56;20951;-84
2020/12/05 07:21:48;;;;;;;2.70;1.20;;;7.00;70.10;;;;;;2406186;56;20979;-85
2020/12/05 07:24:14;;;;;;;2.40;1.20;;;7.00;70.20;;;;;;2433670;55;21514;-88
2020/12/05 07:26:40;;;;;;;2.20;1.02;;;7.00;70.30;;;;;;2213855;56;21633;-86
2020/12/05 07:29:06;;;;;;;2.25;1.10;;;6.90;70.20;;;;;;2432254;55;21051;-86
2020/12/05 07:31:33;;;;;;;2.25;1.05;;;6.90;70.20;;;;;;2431889;55;20985;-86
2020/12/05 07:33:59;;;;;;;2.30;0.90;;;6.90;70.10;;;;;;2431964;55;20944;-86
2020/12/05 07:36:25;;;;;;;2.53;1.00;;;6.90;70.10;;;;;;2219429;55;21053;-85
2020/12/05 07:38:51;;;;;;;2.40;1.10;;;6.80;69.90;;;;;;2434178;55;21026;-83
2020/12/05 07:41:19;;;;;;;2.17;1.00;;;6.80;70.40;;;;;;2434056;55;20918;-86
2020/12/05 07:43:45;;;;;;;2.55;1.20;;;6.80;69.80;;;;;;2462003;54;20988;-87
2020/12/05 07:46:12;;;;;;;2.72;1.42;;;6.70;69.60;;;;;;2431893;54;20979;-86
2020/12/05 07:48:39;;;;;;;8.27;3.90;;;6.70;70.00;;;;;;2221764;55;21001;-85
2020/12/05 07:51:11;;;;;;;10.30;4.85;;;6.70;70.10;;;;;;2429792;55;21125;-86
2020/12/05 07:53:37;;;;;;;6.28;3.30;;;6.70;70.40;;;;;;2430244;55;20975;-86
2020/12/05 07:56:16;;;;;;;4.12;2.40;;;6.70;70.60;;;;;;2439153;55;20941;-85
2020/12/05 07:58:45;;;;;;;4.03;2.00;;;6.60;70.70;;;;;;2471388;54;21571;-85
2020/12/05 08:02:53;;;;;;;4.68;2.30;;;6.60;71.20;;;;;;2424803;55;20998;-88
2020/12/05 08:07:05;;;;;;;5.07;2.67;;;6.60;70.30;;;;;;2430449;55;21046;-84
2020/12/05 08:09:33;;;;;;;15.32;6.47;;;6.60;70.30;;;;;;2429681;55;21014;-84
2020/12/05 08:12:00;;;;;;;11.55;5.90;;;6.60;70.60;;;;;;2429769;55;21002;-84
2020/12/05 08:14:31;;;;;;;13.18;6.43;;;6.60;70.70;;;;;;2430636;55;21078;-83
2020/12/05 08:16:57;;;;;;;6.55;3.45;;;6.60;70.80;;;;;;2422717;55;21972;-84
2020/12/05 08:19:23;;;;;;;7.00;3.72;;;6.60;71.00;;;;;;2441485;55;21012;-86
2020/12/05 08:21:50;;;;;;;4.97;2.65;;;6.50;71.80;;;;;;2457956;54;20990;-85
2020/12/05 08:24:18;;;;;;;5.07;2.50;;;6.60;71.40;;;;;;2437225;55;21041;-86
2020/12/05 08:26:47;;;;;;;5.12;2.80;;;6.60;71.50;;;;;;2430318;55;21011;-86
2020/12/05 08:29:13;;;;;;;4.20;2.30;;;6.60;71.50;;;;;;2430519;55;20983;-84
2020/12/05 08:31:43;;;;;;;5.43;2.40;;;6.60;71.50;;;;;;2431370;55;20995;-85
2020/12/05 08:34:09;;;;;;;5.30;2.65;;;6.60;71.60;;;;;;2220709;55;20966;-84
2020/12/05 08:36:37;;;;;;;6.00;2.53;;;6.60;71.70;;;;;;2455184;54;21084;-86
2020/12/05 08:39:11;;;;;;;6.72;3.12;;;6.60;71.80;;;;;;2439310;54;21863;-83
2020/12/05 08:41:51;;;;;;;6.15;3.12;;;6.70;72.10;;;;;;2436468;55;21004;-82
2020/12/05 08:44:18;;;;;;;5.15;3.00;;;6.70;72.10;;;;;;2430921;55;20967;-84
2020/12/05 08:46:45;;;;;;;6.00;3.12;;;6.70;72.10;;;;;;2221079;55;21002;-87
2020/12/05 08:49:18;;;;;;;5.28;2.70;;;6.80;72.20;;;;;;2213929;55;20958;-86
2020/12/05 08:51:47;;;;;;;6.30;3.25;;;6.80;72.30;;;;;;2222571;55;20922;-85
2020/12/05 08:54:13;;;;;;;5.50;2.92;;;6.80;72.50;;;;;;2436306;55;20954;-88
2020/12/05 08:56:40;;;;;;;4.22;2.40;;;6.80;72.60;;;;;;2435284;55;21478;-88
2020/12/05 08:59:06;;;;;;;3.47;2.00;;;6.90;72.90;;;;;;2437777;55;20969;-86
2020/12/05 09:01:43;;;;;;;4.70;2.42;;;6.90;72.90;;;;;;2433307;55;21030;-87
2020/12/05 09:04:12;;;;;;;5.95;3.30;;;7.00;73.30;;;;;;2431438;55;21072;-84
2020/12/05 09:07:56;;;;;;;4.57;2.72;;;7.00;73.30;;;;;;2429574;55;21626;-84
2020/12/05 16:52:28;;;;;;;9.55;5.40;;;7.70;70.00;;;;;;2454360;54;21032;-85
2020/12/05 16:57:09;;;;;;;12.45;7.32;;;7.60;70.70;;;;;;2440351;55;21632;-85
2020/12/05 17:00:15;;;;;;;10.15;6.28;;;7.50;70.50;;;;;;2449778;55;20996;-84
2020/12/05 17:03:15;;;;;;;9.35;5.37;;;7.50;70.70;;;;;;2453027;55;21861;-84
2020/12/05 17:19:14;;;;;;;7.35;4.35;;;7.40;70.70;;;;;;2438548;54;21064;-84
2020/12/05 17:22:09;;;;;;;11.48;6.57;;;7.40;70.80;;;;;;2431901;55;21103;-86
2020/12/05 17:24:41;;;;;;;10.18;6.03;;;7.40;70.50;;;;;;2202396;56;20954;-84
2020/12/05 17:27:20;;;;;;;9.93;6.18;;;7.30;70.60;;;;;;2463346;55;21010;-83
2020/12/05 17:30:05;;;;;;;9.82;6.25;;;7.30;70.80;;;;;;2258836;54;21066;-83
2020/12/05 17:32:47;;;;;;;;;;;;;;;;;;;;;
2020/12/05 17:39:20;;;;;;;7.87;5.10;;;7.20;70.80;;;;;;2474579;54;20958;-87
2020/12/05 17:42:10;;;;;;;10.88;6.62;;;7.20;70.70;;;;;;2438979;55;21064;-85
2020/12/05 17:48:09;;;;;;;11.88;7.00;;;7.20;70.90;;;;;;2438361;55;21021;-87
2020/12/05 17:50:45;;;;;;;12.07;7.10;;;7.20;71.00;;;;;;2474428;54;21147;-83
2020/12/05 17:54:08;;;;;;;9.65;5.78;;;7.20;70.90;;;;;;2469380;54;21146;-84
2020/12/05 17:56:45;;;;;;;11.07;6.30;;;7.20;71.10;;;;;;2431328;55;21023;-86
2020/12/05 18:00:22;;;;;;;9.77;6.05;;;7.20;71.10;;;;;;2429942;55;21090;-86
2020/12/05 18:03:38;;;;;;;11.40;6.55;;;7.20;70.90;;;;;;2460486;55;21012;-83
2020/12/05 18:06:06;;;;;;;9.93;6.05;;;7.20;70.80;;;;;;2432165;54;20967;-85
2020/12/05 18:09:32;;;;;;;8.73;5.60;;;7.20;71.10;;;;;;2448832;55;21823;-84
2020/12/05 18:12:22;;;;;;;11.15;6.32;;;7.20;71.00;;;;;;2450244;55;20922;-84
2020/12/05 18:14:48;;;;;;;13.82;8.00;;;7.20;70.90;;;;;;2462266;54;20962;-84
2020/12/05 18:17:15;;;;;;;15.60;8.68;;;7.20;71.10;;;;;;2443276;54;21005;-84
2020/12/05 18:19:41;;;;;;;15.05;9.27;;;7.20;71.10;;;;;;2436608;55;20947;-84
2020/12/05 18:22:08;;;;;;;9.85;5.90;;;7.20;71.10;;;;;;2431565;55;20991;-85
2020/12/05 18:24:54;;;;;;;12.50;7.43;;;7.10;71.00;;;;;;2432303;55;20973;-84
2020/12/05 18:27:25;;;;;;;13.18;7.62;;;7.10;71.20;;;;;;2426163;55;20983;-85
2020/12/05 18:29:56;;;;;;;15.15;8.15;;;7.10;71.30;;;;;;2440761;55;21021;-87
2020/12/05 18:32:32;;;;;;;12.70;7.37;;;7.10;71.30;;;;;;2433172;55;20967;-85
2020/12/05 18:34:58;;;;;;;12.77;7.57;;;7.10;71.30;;;;;;2431781;55;20951;-86
2020/12/05 18:37:25;;;;;;;13.30;8.18;;;7.10;71.10;;;;;;2438020;54;20922;-84
2020/12/05 18:40:01;;;;;;;12.25;7.05;;;7.10;71.20;;;;;;2433294;55;21031;-83
2020/12/05 18:42:50;;;;;;;11.23;7.57;;;7.20;71.40;;;;;;2436675;55;21756;-86
2020/12/05 18:46:52;;;;;;;12.40;8.07;;;7.10;71.40;;;;;;2397164;56;20987;-84
2020/12/05 18:50:17;;;;;;;13.50;8.40;;;7.10;71.50;;;;;;2452379;55;21019;-85
2020/12/05 18:53:06;;;;;;;13.95;7.95;;;7.20;71.30;;;;;;2390002;54;1781167;-85
2020/12/05 18:56:19;;;;;;;;;;;;;;;;;;;;;
2020/12/05 18:59:21;;;;;;;17.85;10.02;;;7.20;71.40;;;;;;2204909;56;21005;-87
2020/12/05 19:01:51;;;;;;;11.90;7.57;;;7.20;71.60;;;;;;2433006;55;21011;-84
2020/12/05 19:46:54;;;;;;;16.40;9.68;;;7.20;71.90;;;;;;2453459;54;22064;-85
2020/12/05 19:49:52;;;;;;;10.82;5.82;;;7.20;72.00;;;;;;2224129;55;20992;-83
2020/12/05 19:53:18;;;;;;;10.15;5.37;;;7.40;71.70;;;;;;2430431;55;20955;-83
2020/12/05 19:56:51;;;;;;;13.62;7.47;;;7.40;71.70;;;;;;2451282;54;21053;-85
2020/12/05 20:00:45;;;;;;;12.15;7.55;;;7.40;71.80;;;;;;2469530;54;21036;-83
2020/12/05 20:03:34;;;;;;;10.63;6.47;;;7.40;71.60;;;;;;2462025;55;20970;-85
2020/12/05 20:44:58;;;;;;;15.23;9.13;;;7.30;71.50;;;;;;2482178;54;21012;-83
2020/12/05 20:48:27;;;;;;;21.70;9.25;;;7.40;71.80;;;;;;2461246;54;21142;-83
2020/12/05 20:52:33;;;;;;;15.70;7.60;;;7.40;71.20;;;;;;2326411;57;21016;-86
2020/12/05 21:06:29;;;;;;;15.43;7.35;;;7.30;70.90;;;;;;2356288;56;20966;-85
2020/12/05 21:15:19;;;;;;;18.40;9.38;;;7.30;71.10;;;;;;2374779;57;21030;-83
2020/12/05 21:18:10;;;;;;;14.95;8.60;;;7.30;71.50;;;;;;2381617;57;21135;-84
2020/12/05 21:21:09;;;;;;;16.23;8.05;;;7.20;71.50;;;;;;2362179;57;20989;-85
2020/12/05 21:24:01;;;;;;;15.20;7.70;;;7.20;71.70;;;;;;2381930;57;21808;-84
2020/12/05 21:27:01;;;;;;;17.50;9.60;;;7.20;71.80;;;;;;2378808;56;21032;-86
2020/12/05 21:29:58;;;;;;;16.48;9.20;;;7.20;71.70;;;;;;2416537;55;20983;-83
2020/12/05 21:32:28;;;;;;;15.38;9.45;;;7.30;72.50;;;;;;2432002;55;21957;-83
2020/12/05 21:34:54;;;;;;;17.45;9.40;;;7.20;71.90;;;;;;2405750;55;21661;-83
2020/12/05 21:37:33;;;;;;;16.75;9.45;;;7.30;72.00;;;;;;2439991;55;20986;-86
2020/12/05 21:59:35;;;;;;;16.95;8.65;;;7.40;71.40;;;;;;2437742;55;21103;-83
2020/12/05 22:02:39;;;;;;;13.25;8.02;;;7.30;71.60;;;;;;2428815;54;20985;-84
2020/12/05 22:05:22;;;;;;;14.80;9.02;;;7.40;71.60;;;;;;2201752;55;20943;-84
2020/12/05 22:11:20;;;;;;;17.50;8.68;;;7.30;71.60;;;;;;2459375;54;21046;-84
2020/12/05 22:14:10;;;;;;;21.60;11.45;;;7.30;71.70;;;;;;2469667;54;20933;-84
2020/12/05 22:16:52;;;;;;;16.85;9.85;;;7.30;71.70;;;;;;2457265;54;20999;-84
2020/12/05 22:23:22;;;;;;;13.32;7.85;;;7.30;71.60;;;;;;2479903;54;21017;-85
2020/12/05 22:26:49;;;;;;;23.12;11.12;;;7.30;71.80;;;;;;2426589;54;21025;-83
2020/12/05 22:37:06;;;;;;;13.10;6.95;;;7.40;71.60;;;;;;2447111;55;21582;-85
2020/12/05 23:18:21;;;;;;;13.82;8.23;;;7.30;71.60;;;;;;2397163;55;21878;-85
2020/12/05 23:20:57;;;;;;;11.20;5.55;;;7.40;71.70;;;;;;2258566;55;20987;-84
2020/12/05 23:23:29;;;;;;;12.07;6.80;;;7.20;71.20;;;;;;2447152;55;20969;-86
2020/12/05 23:26:09;;;;;;;14.32;8.25;;;7.20;71.50;;;;;;2467171;55;21298;-86
2020/12/05 23:28:36;;;;;;;14.23;7.30;;;7.20;71.70;;;;;;2436499;55;21306;-86
2020/12/05 23:31:22;;;;;;;16.58;9.13;;;7.20;71.70;;;;;;2453045;55;21777;-84
2020/12/05 23:34:12;;;;;;;20.30;10.68;;;7.10;71.70;;;;;;2474832;55;21041;-84
2020/12/05 23:37:07;;;;;;;21.73;12.30;;;7.20;71.80;;;;;;2458747;54;20972;-86
2020/12/05 23:39:34;;;;;;;21.98;12.25;;;7.20;71.70;;;;;;2427853;55;21015;-85
2020/12/05 23:42:00;;;;;;;16.65;9.73;;;7.20;71.70;;;;;;2469636;54;21849;-84
2020/12/05 23:44:46;;;;;;;15.90;9.18;;;7.20;71.60;;;;;;2419995;55;21062;-86
